Time;durP1;ratioP1;P1;durP2;ratioP2;P2;SDS_P1;SDS_P2;PMS_P1;PMS_P2;Temp;Humidity;BMP_temperature;BMP_pressure;BME280_temperature;BME280_humidity;BME280_pressure;Samples;Min_cycle;Max_cycle;Signal;HPM_P1;HPM_P2
2021/01/14 00:00:50;;;;;;;;;0.00;0.00;;;;;;;;5039076;28;9957;-84
2021/01/14 00:03:18;;;;;;;;;0.00;0.00;;;;;;;;5040235;28;10032;-85
2021/01/14 00:05:45;;;;;;;;;1.00;0.00;;;;;;;;5031988;28;10094;-84
2021/01/14 00:08:12;;;;;;;;;0.00;0.00;;;;;;;;5041751;28;9931;-89
2021/01/14 00:10:39;;;;;;;;;0.00;0.00;;;;;;;;5041694;28;10129;-84
2021/01/14 00:13:07;;;;;;;;;0.00;0.00;;;;;;;;5041508;28;10124;-87
2021/01/14 00:15:34;;;;;;;;;0.00;0.00;;;;;;;;5040369;28;10070;-83
2021/01/14 00:18:01;;;;;;;;;0.00;0.00;;;;;;;;5031286;28;10040;-82
2021/01/14 00:20:29;;;;;;;;;0.00;0.00;;;;;;;;5039287;28;10143;-82
2021/01/14 00:22:56;;;;;;;;;0.00;0.00;;;;;;;;5040235;28;10042;-81
2021/01/14 00:25:23;;;;;;;;;0.00;0.00;;;;;;;;5037251;28;10006;-82
2021/01/14 00:27:51;;;;;;;;;0.00;0.00;;;;;;;;5036031;28;10036;-81
2021/01/14 00:30:22;;;;;;;;;0.00;0.00;;;;;;;;5036998;28;10186;-81
2021/01/14 00:32:49;;;;;;;;;1.00;0.00;;;;;;;;5037511;28;10789;-83
2021/01/14 00:35:16;;;;;;;;;0.00;0.00;;;;;;;;5033048;28;10031;-84
2021/01/14 00:37:53;;;;;;;;;0.00;0.00;;;;;;;;5039448;28;10140;-83
2021/01/14 00:40:22;;;;;;;;;0.00;0.00;;;;;;;;5030758;28;9947;-85
2021/01/14 00:42:57;;;;;;;;;0.00;0.00;;;;;;;;5040885;28;10168;-82
2021/01/14 00:51:34;;;;;;;;;1.00;0.00;;;;;;;;5036942;28;9906;-81
2021/01/14 00:54:02;;;;;;;;;0.00;0.00;;;;;;;;5038438;28;9953;-83
2021/01/14 00:56:32;;;;;;;;;1.00;0.00;;;;;;;;5042024;28;9977;-81
2021/01/14 00:58:59;;;;;;;;;0.00;0.00;;;;;;;;5039478;28;10014;-83
2021/01/14 01:01:26;;;;;;;;;0.00;0.00;;;;;;;;5041799;28;9809;-84
2021/01/14 01:03:53;;;;;;;;;1.00;0.00;;;;;;;;5045106;28;10103;-84
2021/01/14 01:06:21;;;;;;;;;0.00;0.00;;;;;;;;5030128;28;10784;-84
2021/01/14 01:08:48;;;;;;;;;1.00;1.00;;;;;;;;5035649;28;10022;-85
2021/01/14 01:11:16;;;;;;;;;2.00;1.00;;;;;;;;5032984;28;10112;-84
2021/01/14 01:17:07;;;;;;;;;0.00;0.00;;;;;;;;4938833;28;10240;-87
2021/01/14 01:19:34;;;;;;;;;0.50;0.50;;;;;;;;4974111;28;10102;-84
2021/01/14 01:22:01;;;;;;;;;0.25;0.25;;;;;;;;4999007;28;10099;-83
2021/01/14 01:24:28;;;;;;;;;0.50;0.50;;;;;;;;5002243;28;10106;-87
2021/01/14 01:26:56;;;;;;;;;2.00;0.00;;;;;;;;4998104;28;10111;-82
2021/01/14 01:29:22;;;;;;;;;0.50;0.50;;;;;;;;4992959;28;10235;-82
2021/01/14 01:31:49;;;;;;;;;0.50;0.50;;;;;;;;4998612;28;10147;-84
2021/01/14 01:34:16;;;;;;;;;0.00;0.00;;;;;;;;4994819;28;10286;-83
2021/01/14 01:36:43;;;;;;;;;1.50;0.00;;;;;;;;4999618;28;10128;-83
2021/01/14 01:39:10;;;;;;;;;0.00;0.00;;;;;;;;4999786;28;10275;-88
2021/01/14 01:41:37;;;;;;;;;0.00;0.00;;;;;;;;5001850;28;10114;-87
2021/01/14 01:44:05;;;;;;;;;0.00;0.00;;;;;;;;5001948;28;10135;-88
2021/01/14 01:46:32;;;;;;;;;0.00;0.00;;;;;;;;5006167;28;10126;-81
2021/01/14 01:49:00;;;;;;;;;0.00;0.00;;;;;;;;4995359;28;10135;-80
2021/01/14 01:51:32;;;;;;;;;0.00;0.00;;;;;;;;4994477;28;10176;-81
2021/01/14 01:54:00;;;;;;;;;0.00;0.00;;;;;;;;4997678;28;10056;-81
2021/01/14 01:56:27;;;;;;;;;0.00;0.00;;;;;;;;4998309;28;11022;-80
2021/01/14 01:58:57;;;;;;;;;1.00;1.00;;;;;;;;4996182;28;10879;-80
2021/01/14 02:01:26;;;;;;;;;0.00;0.00;;;;;;;;5003327;28;10167;-80
2021/01/14 02:03:56;;;;;;;;;0.00;0.00;;;;;;;;4995762;28;10292;-79
2021/01/14 02:06:23;;;;;;;;;0.00;0.00;;;;;;;;4999924;28;10145;-77
2021/01/14 02:08:53;;;;;;;;;0.00;0.00;;;;;;;;5004121;28;10172;-78
2021/01/14 02:11:27;;;;;;;;;1.00;0.00;;;;;;;;4998449;28;10285;-78
2021/01/14 02:14:03;;;;;;;;;0.00;0.00;;;;;;;;4992353;28;10409;-82
2021/01/14 02:16:32;;;;;;;;;0.00;0.00;;;;;;;;4998041;28;10180;-78
2021/01/14 02:19:01;;;;;;;;;0.00;0.00;;;;;;;;5045152;28;10272;-79
2021/01/14 02:21:28;;;;;;;;;0.00;0.00;;;;;;;;5042978;28;10142;-79
2021/01/14 02:24:04;;;;;;;;;1.00;1.00;;;;;;;;5042490;28;10155;-79
2021/01/14 02:26:32;;;;;;;;;0.00;0.00;;;;;;;;5037247;28;10429;-80
2021/01/14 02:29:00;;;;;;;;;0.00;0.00;;;;;;;;5030474;28;10289;-80
2021/01/14 02:31:27;;;;;;;;;1.00;1.00;;;;;;;;5027542;28;10195;-79
2021/01/14 02:33:56;;;;;;;;;0.00;0.00;;;;;;;;5038133;28;10290;-79
2021/01/14 02:49:43;;;;;;;;;4.75;4.75;;;;;;;;4989282;28;10404;-81
2021/01/14 02:52:12;;;;;;;;;4.75;3.00;;;;;;;;4996539;28;10339;-80
2021/01/14 02:54:40;;;;;;;;;3.00;3.00;;;;;;;;5025584;28;10334;-80
2021/01/14 02:57:08;;;;;;;;;1.75;1.75;;;;;;;;5037688;28;11258;-81
2021/01/14 02:59:35;;;;;;;;;3.00;3.00;;;;;;;;5037001;28;10489;-81
2021/01/14 03:02:01;;;;;;;;;4.75;4.75;;;;;;;;5030520;28;10361;-80
2021/01/14 03:04:28;;;;;;;;;3.75;3.75;;;;;;;;5053049;28;10409;-80
2021/01/14 03:06:56;;;;;;;;;4.00;2.75;;;;;;;;5052362;28;10485;-79
2021/01/14 03:09:23;;;;;;;;;7.00;5.50;;;;;;;;5048241;28;10482;-79
2021/01/14 03:11:51;;;;;;;;;6.00;4.00;;;;;;;;5055055;28;10478;-79
2021/01/14 03:14:18;;;;;;;;;7.00;7.00;;;;;;;;5055607;28;10546;-78
2021/01/14 03:16:45;;;;;;;;;8.00;7.00;;;;;;;;5056888;28;10454;-79
2021/01/14 03:19:12;;;;;;;;;8.50;8.00;;;;;;;;5063697;28;11909;-81
2021/01/14 03:21:39;;;;;;;;;10.75;10.50;;;;;;;;5060308;28;11303;-78
2021/01/14 03:24:08;;;;;;;;;9.25;9.25;;;;;;;;5054257;28;11472;-80
2021/01/14 03:26:37;;;;;;;;;11.50;11.50;;;;;;;;5059293;28;11453;-78
2021/01/14 03:29:04;;;;;;;;;11.00;8.50;;;;;;;;5057496;28;10822;-78
2021/01/14 03:31:31;;;;;;;;;8.75;8.00;;;;;;;;5063914;28;10510;-78
2021/01/14 03:33:58;;;;;;;;;10.25;9.00;;;;;;;;5049732;28;10596;-79
2021/01/14 03:36:24;;;;;;;;;10.75;8.75;;;;;;;;5048856;28;10486;-79
2021/01/14 03:38:51;;;;;;;;;10.00;6.00;;;;;;;;5057345;28;10645;-80
2021/01/14 03:41:20;;;;;;;;;6.50;6.50;;;;;;;;5054989;28;11295;-79
2021/01/14 03:43:47;;;;;;;;;7.00;7.00;;;;;;;;5056672;28;10431;-78
2021/01/14 03:46:17;;;;;;;;;6.75;6.75;;;;;;;;5038046;28;10590;-82
2021/01/14 03:48:46;;;;;;;;;6.00;3.50;;;;;;;;5059869;28;10414;-80
2021/01/14 03:51:17;;;;;;;;;3.50;3.50;;;;;;;;5062254;28;10346;-81
2021/01/14 03:53:44;;;;;;;;;4.50;2.00;;;;;;;;5062650;28;11174;-80
2021/01/14 03:56:11;;;;;;;;;3.00;3.00;;;;;;;;5055014;28;10265;-83
2021/01/14 03:58:39;;;;;;;;;3.50;2.00;;;;;;;;5056496;28;11130;-81
2021/01/14 04:01:06;;;;;;;;;2.00;2.00;;;;;;;;5053160;28;10393;-80
2021/01/14 04:03:33;;;;;;;;;0.00;0.00;;;;;;;;5058126;28;10256;-81
2021/01/14 04:05:59;;;;;;;;;6.50;2.00;;;;;;;;5060801;28;10099;-80
2021/01/14 04:08:27;;;;;;;;;1.50;1.00;;;;;;;;5054855;28;10316;-84
2021/01/14 04:10:54;;;;;;;;;0.00;0.00;;;;;;;;5049591;28;10272;-83
2021/01/14 04:13:21;;;;;;;;;1.00;1.00;;;;;;;;5045579;28;10187;-82
2021/01/14 04:15:49;;;;;;;;;0.25;0.25;;;;;;;;5048497;28;10161;-82
2021/01/14 04:18:16;;;;;;;;;0.50;0.00;;;;;;;;5058113;28;10176;-83
2021/01/14 04:20:43;;;;;;;;;0.25;0.25;;;;;;;;5048734;28;10860;-88
2021/01/14 04:23:10;;;;;;;;;0.00;0.00;;;;;;;;5068757;28;10237;-85
2021/01/14 04:25:36;;;;;;;;;0.50;0.50;;;;;;;;5062781;28;10087;-85
2021/01/14 04:28:04;;;;;;;;;0.00;0.00;;;;;;;;5052697;28;10184;-86
2021/01/14 04:30:34;;;;;;;;;1.50;0.00;;;;;;;;5066236;28;10783;-85
2021/01/14 04:33:10;;;;;;;;;0.00;0.00;;;;;;;;5063886;28;10316;-81
2021/01/14 04:35:44;;;;;;;;;1.00;1.00;;;;;;;;5061828;28;10179;-79
2021/01/14 04:38:11;;;;;;;;;0.00;0.00;;;;;;;;5065436;28;10114;-82
2021/01/14 04:40:37;;;;;;;;;0.00;0.00;;;;;;;;5063360;28;10887;-79
2021/01/14 04:43:07;;;;;;;;;0.75;0.00;;;;;;;;5052480;28;10100;-81
2021/01/14 04:45:34;;;;;;;;;0.00;0.00;;;;;;;;5061417;28;10039;-80
2021/01/14 04:48:04;;;;;;;;;0.25;0.00;;;;;;;;5061221;28;10139;-79
2021/01/14 04:50:30;;;;;;;;;0.00;0.00;;;;;;;;5054361;28;10049;-80
2021/01/14 04:52:57;;;;;;;;;0.00;0.00;;;;;;;;5062013;28;9941;-83
2021/01/14 04:55:29;;;;;;;;;0.00;0.00;;;;;;;;5040584;28;10059;-81
2021/01/14 04:57:56;;;;;;;;;0.00;0.00;;;;;;;;5038884;28;10127;-79
2021/01/14 05:00:25;;;;;;;;;0.00;0.00;;;;;;;;5051213;28;10721;-80
2021/01/14 05:02:57;;;;;;;;;0.00;0.00;;;;;;;;5051990;28;10105;-79
2021/01/14 05:05:26;;;;;;;;;0.00;0.00;;;;;;;;5047646;28;10152;-79
2021/01/14 05:08:06;;;;;;;;;0.00;0.00;;;;;;;;5066218;28;10838;-80
2021/01/14 05:10:34;;;;;;;;;0.00;0.00;;;;;;;;5036433;28;10028;-80
2021/01/14 05:13:01;;;;;;;;;0.00;0.00;;;;;;;;5056851;28;9960;-80
2021/01/14 05:15:29;;;;;;;;;0.00;0.00;;;;;;;;5057716;28;10044;-77
2021/01/14 05:17:58;;;;;;;;;0.00;0.00;;;;;;;;5062354;28;10008;-83
2021/01/14 05:20:26;;;;;;;;;0.00;0.00;;;;;;;;5059765;28;10194;-82
2021/01/14 05:22:57;;;;;;;;;0.00;0.00;;;;;;;;5059201;28;10104;-77
2021/01/14 05:25:24;;;;;;;;;0.00;0.00;;;;;;;;5051486;28;10093;-78
2021/01/14 05:27:51;;;;;;;;;0.00;0.00;;;;;;;;5058420;28;10009;-83
2021/01/14 05:30:21;;;;;;;;;0.00;0.00;;;;;;;;5057542;28;10005;-80
2021/01/14 05:32:49;;;;;;;;;0.00;0.00;;;;;;;;5063586;28;10024;-79
2021/01/14 05:35:28;;;;;;;;;0.00;0.00;;;;;;;;5065969;28;10127;-83
2021/01/14 05:38:00;;;;;;;;;0.00;0.00;;;;;;;;5059544;28;10004;-82
2021/01/14 05:40:29;;;;;;;;;0.00;0.00;;;;;;;;5053086;28;10101;-80
2021/01/14 05:43:04;;;;;;;;;0.00;0.00;;;;;;;;5058187;28;10263;-80
2021/01/14 05:45:31;;;;;;;;;0.00;0.00;;;;;;;;5044530;28;10176;-82
2021/01/14 05:48:09;;;;;;;;;0.00;0.00;;;;;;;;5047567;28;10163;-81
2021/01/14 05:50:44;;;;;;;;;0.00;0.00;;;;;;;;5063206;28;10185;-83
2021/01/14 05:53:18;;;;;;;;;0.00;0.00;;;;;;;;5045914;28;10169;-81
2021/01/14 05:55:46;;;;;;;;;0.00;0.00;;;;;;;;5065057;28;10119;-78
2021/01/14 05:58:18;;;;;;;;;0.00;0.00;;;;;;;;5061841;28;10250;-79
2021/01/14 06:00:46;;;;;;;;;0.00;0.00;;;;;;;;5065058;28;9960;-78
2021/01/14 06:03:26;;;;;;;;;1.00;0.00;;;;;;;;5059639;28;10240;-78
2021/01/14 06:05:54;;;;;;;;;0.00;0.00;;;;;;;;5046355;28;10018;-79
2021/01/14 06:08:25;;;;;;;;;0.00;0.00;;;;;;;;5065049;28;10170;-80
2021/01/14 06:10:53;;;;;;;;;0.00;0.00;;;;;;;;5058832;28;10022;-79
2021/01/14 06:13:22;;;;;;;;;0.00;0.00;;;;;;;;5063715;28;10078;-80
2021/01/14 06:15:59;;;;;;;;;0.00;0.00;;;;;;;;5064326;28;10173;-78
2021/01/14 06:18:26;;;;;;;;;1.00;0.00;;;;;;;;5017806;28;10115;-82
2021/01/14 06:20:55;;;;;;;;;2.00;0.00;;;;;;;;5054821;28;10195;-81
2021/01/14 06:23:23;;;;;;;;;0.00;0.00;;;;;;;;5062179;28;10768;-80
2021/01/14 06:25:51;;;;;;;;;0.00;0.00;;;;;;;;5045995;28;10124;-81
2021/01/14 06:28:22;;;;;;;;;0.00;0.00;;;;;;;;5063390;28;10184;-79
2021/01/14 06:31:01;;;;;;;;;0.00;0.00;;;;;;;;5062477;28;10029;-81
2021/01/14 06:33:29;;;;;;;;;0.00;0.00;;;;;;;;5054802;28;10111;-79
2021/01/14 06:36:07;;;;;;;;;0.75;0.75;;;;;;;;5062530;28;10963;-81
2021/01/14 06:38:42;;;;;;;;;0.00;0.00;;;;;;;;5057209;28;10276;-83
2021/01/14 06:41:17;;;;;;;;;0.00;0.00;;;;;;;;5060574;28;10144;-79
2021/01/14 06:43:46;;;;;;;;;0.00;0.00;;;;;;;;5041839;28;10179;-80
2021/01/14 06:46:19;;;;;;;;;0.00;0.00;;;;;;;;5052701;28;10178;-76
2021/01/14 06:48:58;;;;;;;;;0.00;0.00;;;;;;;;5045715;28;10297;-74
2021/01/14 06:51:35;;;;;;;;;0.00;0.00;;;;;;;;5056408;28;10325;-72
2021/01/14 06:54:11;;;;;;;;;0.00;0.00;;;;;;;;5057294;28;10247;-72
2021/01/14 06:56:48;;;;;;;;;0.00;0.00;;;;;;;;5048272;28;10314;-72
2021/01/14 06:59:18;;;;;;;;;0.00;0.00;;;;;;;;5048416;28;10105;-70
2021/01/14 07:02:00;;;;;;;;;0.00;0.00;;;;;;;;5054046;28;10100;-73
2021/01/14 07:04:51;;;;;;;;;0.00;0.00;;;;;;;;5058180;28;10180;-72
2021/01/14 07:07:43;;;;;;;;;0.00;0.00;;;;;;;;5057828;28;10279;-72
2021/01/14 07:10:11;;;;;;;;;0.00;0.00;;;;;;;;5051318;28;10121;-73
2021/01/14 07:12:39;;;;;;;;;4.75;4.75;;;;;;;;5058694;28;10228;-72
2021/01/14 07:15:09;;;;;;;;;0.00;0.00;;;;;;;;5050449;28;11003;-74
2021/01/14 07:17:37;;;;;;;;;0.00;0.00;;;;;;;;5030736;28;10647;-74
2021/01/14 07:20:08;;;;;;;;;1.00;0.00;;;;;;;;5045453;28;10180;-74
2021/01/14 07:22:39;;;;;;;;;0.00;0.00;;;;;;;;5056553;28;10060;-73
2021/01/14 07:25:07;;;;;;;;;0.00;0.00;;;;;;;;5054252;28;10246;-74
2021/01/14 07:27:35;;;;;;;;;0.00;0.00;;;;;;;;5047548;28;10183;-74
2021/01/14 07:30:03;;;;;;;;;1.00;1.00;;;;;;;;5051303;28;10193;-73
2021/01/14 07:32:53;;;;;;;;;0.00;0.00;;;;;;;;5058148;28;10239;-73
2021/01/14 07:35:37;;;;;;;;;1.75;1.75;;;;;;;;5049817;28;10263;-74
2021/01/14 07:38:06;;;;;;;;;1.00;1.00;;;;;;;;5051431;28;10188;-74
2021/01/14 07:40:34;;;;;;;;;1.00;1.00;;;;;;;;5058189;28;10181;-73
2021/01/14 07:43:02;;;;;;;;;2.00;2.00;;;;;;;;5051433;28;11026;-73
2021/01/14 07:45:29;;;;;;;;;1.00;1.00;;;;;;;;5058279;28;10529;-72
2021/01/14 07:47:56;;;;;;;;;3.00;1.00;;;;;;;;5056100;28;10195;-71
2021/01/14 07:50:25;;;;;;;;;1.00;1.00;;;;;;;;5051871;28;10287;-72
2021/01/14 07:52:53;;;;;;;;;1.25;1.25;;;;;;;;5054231;28;10121;-72
2021/01/14 07:55:28;;;;;;;;;0.25;0.00;;;;;;;;5058100;28;10184;-72
2021/01/14 07:58:03;;;;;;;;;1.00;1.00;;;;;;;;5049771;28;10159;-72
2021/01/14 08:00:31;;;;;;;;;0.00;0.00;;;;;;;;5056960;28;10192;-71
2021/01/14 08:03:14;;;;;;;;;0.00;0.00;;;;;;;;5055375;28;11441;-72
2021/01/14 08:05:42;;;;;;;;;1.00;1.00;;;;;;;;5050037;28;10274;-71
2021/01/14 08:08:26;;;;;;;;;1.00;1.00;;;;;;;;5057794;28;10154;-72
2021/01/14 08:11:15;;;;;;;;;0.25;0.25;;;;;;;;5057908;28;10134;-71
2021/01/14 08:14:01;;;;;;;;;1.00;1.00;;;;;;;;5059151;28;10144;-72
2021/01/14 08:16:31;;;;;;;;;0.00;0.00;;;;;;;;5053238;28;10111;-71
2021/01/14 08:19:16;;;;;;;;;0.75;0.75;;;;;;;;5057741;28;10083;-72
2021/01/14 08:21:43;;;;;;;;;0.00;0.00;;;;;;;;5052459;28;10033;-71
2021/01/14 08:24:11;;;;;;;;;1.00;1.00;;;;;;;;5056843;28;10127;-72
2021/01/14 08:27:02;;;;;;;;;0.75;0.75;;;;;;;;5056213;28;10757;-72
2021/01/14 08:29:33;;;;;;;;;0.00;0.00;;;;;;;;5057130;28;10883;-71
2021/01/14 08:32:00;;;;;;;;;0.00;0.00;;;;;;;;5054189;28;10002;-71
2021/01/14 08:34:27;;;;;;;;;0.00;0.00;;;;;;;;5059018;28;10026;-71
2021/01/14 08:36:56;;;;;;;;;1.00;1.00;;;;;;;;5056947;28;10168;-71
2021/01/14 08:39:24;;;;;;;;;0.00;0.00;;;;;;;;5052945;28;10194;-71
2021/01/14 08:41:52;;;;;;;;;1.75;1.00;;;;;;;;5062582;28;10776;-71
2021/01/14 08:44:28;;;;;;;;;0.25;0.25;;;;;;;;5065726;28;10101;-71
2021/01/14 08:46:55;;;;;;;;;0.00;0.00;;;;;;;;5061039;28;10032;-71
2021/01/14 08:49:22;;;;;;;;;2.00;0.00;;;;;;;;5051373;28;10060;-72
2021/01/14 08:51:49;;;;;;;;;0.00;0.00;;;;;;;;5054884;28;10206;-71
2021/01/14 08:54:16;;;;;;;;;0.00;0.00;;;;;;;;5053478;28;10052;-71
2021/01/14 08:56:42;;;;;;;;;1.00;1.00;;;;;;;;5053782;28;9961;-72
2021/01/14 08:59:13;;;;;;;;;2.75;2.00;;;;;;;;5057659;28;10079;-74
2021/01/14 09:01:41;;;;;;;;;0.00;0.00;;;;;;;;5055846;28;10138;-72
2021/01/14 09:04:09;;;;;;;;;0.00;0.00;;;;;;;;5056197;28;10039;-73
2021/01/14 09:06:39;;;;;;;;;0.00;0.00;;;;;;;;5057012;28;10486;-73
2021/01/14 09:09:07;;;;;;;;;2.00;0.50;;;;;;;;5061082;28;10127;-73
2021/01/14 09:11:35;;;;;;;;;1.00;1.00;;;;;;;;5063818;28;10112;-72
2021/01/14 09:14:07;;;;;;;;;1.00;1.00;;;;;;;;5055300;28;10185;-72
2021/01/14 09:16:34;;;;;;;;;0.25;0.25;;;;;;;;5063089;28;9914;-72
2021/01/14 09:19:10;;;;;;;;;1.00;1.00;;;;;;;;5061411;28;10027;-73
2021/01/14 09:21:38;;;;;;;;;0.00;0.00;;;;;;;;5060361;28;11019;-72
2021/01/14 09:24:09;;;;;;;;;0.00;0.00;;;;;;;;5059713;28;9927;-74
2021/01/14 09:26:38;;;;;;;;;1.00;0.00;;;;;;;;5042151;28;10113;-72
2021/01/14 09:29:05;;;;;;;;;0.00;0.00;;;;;;;;5055971;28;10297;-72
2021/01/14 09:31:34;;;;;;;;;0.50;0.50;;;;;;;;5053428;28;9889;-72
2021/01/14 09:34:03;;;;;;;;;0.50;0.50;;;;;;;;5064790;28;10058;-72
2021/01/14 09:36:30;;;;;;;;;1.00;1.00;;;;;;;;5061068;28;10053;-72
2021/01/14 09:38:58;;;;;;;;;1.00;1.00;;;;;;;;5058918;28;10062;-72
2021/01/14 09:41:29;;;;;;;;;0.75;0.50;;;;;;;;5057356;28;10057;-72
2021/01/14 09:43:58;;;;;;;;;0.00;0.00;;;;;;;;5049404;28;9941;-73
2021/01/14 09:46:26;;;;;;;;;0.00;0.00;;;;;;;;5064573;28;10113;-73
2021/01/14 09:48:58;;;;;;;;;0.00;0.00;;;;;;;;5059215;28;10758;-72
2021/01/14 09:51:26;;;;;;;;;0.00;0.00;;;;;;;;5057573;28;9938;-72
2021/01/14 09:53:53;;;;;;;;;0.00;0.00;;;;;;;;5063030;28;9793;-72
2021/01/14 09:56:23;;;;;;;;;0.75;0.75;;;;;;;;5064245;28;9963;-72
2021/01/14 09:58:54;;;;;;;;;0.25;0.25;;;;;;;;5056561;28;9982;-72
2021/01/14 10:01:28;;;;;;;;;0.00;0.00;;;;;;;;5061352;28;9939;-72
2021/01/14 10:04:03;;;;;;;;;0.00;0.00;;;;;;;;5060203;28;10026;-72
2021/01/14 10:06:36;;;;;;;;;0.00;0.00;;;;;;;;5061664;28;9996;-72
2021/01/14 10:09:03;;;;;;;;;1.00;1.00;;;;;;;;5061795;28;10018;-72
2021/01/14 10:11:31;;;;;;;;;0.00;0.00;;;;;;;;5055384;28;9856;-72
2021/01/14 10:13:57;;;;;;;;;2.00;0.00;;;;;;;;5053735;28;9914;-72
2021/01/14 10:16:25;;;;;;;;;1.00;1.00;;;;;;;;5059552;28;9997;-72
2021/01/14 10:18:51;;;;;;;;;0.00;0.00;;;;;;;;5057994;28;10047;-72
2021/01/14 10:21:25;;;;;;;;;1.00;1.00;;;;;;;;5072078;28;9895;-72
2021/01/14 10:23:53;;;;;;;;;0.00;0.00;;;;;;;;5038988;28;9900;-72
2021/01/14 10:26:27;;;;;;;;;0.25;0.25;;;;;;;;5056547;28;10005;-72
2021/01/14 10:28:54;;;;;;;;;0.00;0.00;;;;;;;;5053849;28;9912;-73
2021/01/14 10:31:32;;;;;;;;;0.50;0.50;;;;;;;;5052819;28;9903;-72
2021/01/14 10:33:59;;;;;;;;;0.75;0.75;;;;;;;;5066359;28;10758;-72
2021/01/14 10:36:41;;;;;;;;;0.25;0.25;;;;;;;;5059078;28;9998;-72
2021/01/14 10:39:08;;;;;;;;;1.50;1.50;;;;;;;;5055388;28;9894;-74
2021/01/14 10:41:35;;;;;;;;;2.50;2.50;;;;;;;;5057865;28;10046;-73
2021/01/14 10:44:06;;;;;;;;;3.50;3.50;;;;;;;;5056157;28;10423;-73
2021/01/14 10:46:33;;;;;;;;;6.00;6.00;;;;;;;;5059090;28;10022;-72
2021/01/14 10:49:10;;;;;;;;;2.25;2.25;;;;;;;;5055945;28;10319;-72
2021/01/14 10:51:37;;;;;;;;;3.75;3.75;;;;;;;;5057172;28;10260;-73
2021/01/14 10:54:04;;;;;;;;;2.50;2.50;;;;;;;;5058949;28;10059;-73
2021/01/14 10:56:31;;;;;;;;;6.00;3.75;;;;;;;;5054737;28;10127;-73
2021/01/14 10:59:01;;;;;;;;;3.50;3.50;;;;;;;;5056403;28;10173;-72
2021/01/14 11:01:28;;;;;;;;;3.00;3.00;;;;;;;;5049543;28;10111;-72
2021/01/14 11:03:59;;;;;;;;;3.00;3.00;;;;;;;;5060225;28;10122;-73
2021/01/14 11:06:29;;;;;;;;;3.00;3.00;;;;;;;;5053857;28;10402;-73
2021/01/14 11:09:01;;;;;;;;;5.50;3.25;;;;;;;;5058543;28;9964;-72
2021/01/14 11:11:28;;;;;;;;;4.50;3.00;;;;;;;;5052917;28;10885;-73
2021/01/14 11:13:58;;;;;;;;;4.75;3.50;;;;;;;;5040694;28;10190;-72
2021/01/14 11:16:26;;;;;;;;;7.75;6.75;;;;;;;;5064470;28;10399;-73
2021/01/14 11:18:55;;;;;;;;;10.00;7.00;;;;;;;;5059079;28;10163;-71
2021/01/14 11:21:27;;;;;;;;;8.50;7.25;;;;;;;;5054491;28;10193;-71
2021/01/14 11:23:54;;;;;;;;;8.50;8.50;;;;;;;;5055879;28;10179;-71
2021/01/14 11:26:22;;;;;;;;;6.00;3.75;;;;;;;;5053281;28;10196;-72
2021/01/14 11:28:49;;;;;;;;;7.25;4.25;;;;;;;;5050097;28;10248;-72
2021/01/14 11:31:17;;;;;;;;;7.00;7.00;;;;;;;;5062994;28;10096;-72
2021/01/14 11:33:45;;;;;;;;;6.25;6.25;;;;;;;;5057361;28;10278;-72
2021/01/14 11:36:12;;;;;;;;;7.00;4.25;;;;;;;;5050822;28;10323;-72
2021/01/14 11:38:39;;;;;;;;;3.50;2.50;;;;;;;;5057948;28;10270;-72
2021/01/14 11:41:06;;;;;;;;;2.00;2.00;;;;;;;;5053402;28;10389;-72
2021/01/14 11:43:33;;;;;;;;;3.75;3.75;;;;;;;;5049081;28;10360;-72
2021/01/14 11:46:00;;;;;;;;;2.50;2.50;;;;;;;;5051384;28;10113;-72
2021/01/14 11:48:28;;;;;;;;;2.75;2.75;;;;;;;;5059596;28;10131;-72
2021/01/14 11:50:54;;;;;;;;;11.50;10.75;;;;;;;;5058013;28;10117;-72
2021/01/14 11:53:21;;;;;;;;;1.25;1.25;;;;;;;;5053991;28;10496;-73
2021/01/14 11:55:48;;;;;;;;;2.00;2.00;;;;;;;;5058330;28;10016;-72
2021/01/14 11:58:15;;;;;;;;;3.25;2.00;;;;;;;;5051545;28;10097;-73
2021/01/14 12:00:42;;;;;;;;;4.50;2.50;;;;;;;;5063638;28;10076;-73
2021/01/14 12:03:08;;;;;;;;;6.75;3.00;;;;;;;;5050100;28;10252;-72
2021/01/14 12:05:36;;;;;;;;;2.00;2.00;;;;;;;;5054547;28;10169;-73
2021/01/14 12:08:03;;;;;;;;;6.00;3.00;;;;;;;;5049701;28;10034;-72
2021/01/14 12:10:31;;;;;;;;;18.75;17.75;;;;;;;;5073496;28;10302;-72
2021/01/14 12:12:57;;;;;;;;;8.00;8.00;;;;;;;;5054656;28;10587;-72
2021/01/14 12:15:24;;;;;;;;;5.00;4.25;;;;;;;;5053326;28;10403;-72
2021/01/14 12:17:51;;;;;;;;;6.00;3.00;;;;;;;;5051922;28;10428;-73
2021/01/14 12:20:18;;;;;;;;;6.00;6.00;;;;;;;;5049421;28;10338;-72
2021/01/14 12:22:46;;;;;;;;;6.25;6.25;;;;;;;;5050153;28;10321;-72
2021/01/14 12:25:13;;;;;;;;;4.00;4.00;;;;;;;;5052877;28;10264;-71
2021/01/14 12:27:41;;;;;;;;;3.75;3.25;;;;;;;;5047810;28;11360;-71
2021/01/14 12:30:10;;;;;;;;;6.00;5.00;;;;;;;;5060497;28;11101;-71
2021/01/14 12:32:37;;;;;;;;;2.00;2.00;;;;;;;;5056611;28;10229;-71
2021/01/14 12:35:05;;;;;;;;;2.50;2.50;;;;;;;;5052019;28;10858;-73
2021/01/14 12:37:33;;;;;;;;;1.00;1.00;;;;;;;;5055454;28;10215;-73
2021/01/14 12:40:00;;;;;;;;;3.00;3.00;;;;;;;;5059023;28;10291;-73
2021/01/14 12:42:27;;;;;;;;;15.25;8.00;;;;;;;;5050342;28;10968;-72
2021/01/14 12:44:54;;;;;;;;;1.75;1.75;;;;;;;;5058512;28;10359;-72
2021/01/14 12:47:21;;;;;;;;;3.00;3.00;;;;;;;;5059481;28;11014;-71
2021/01/14 12:49:48;;;;;;;;;6.75;3.00;;;;;;;;5066820;28;10247;-71
2021/01/14 12:52:14;;;;;;;;;3.00;3.00;;;;;;;;5065374;28;10189;-71
2021/01/14 12:54:41;;;;;;;;;3.75;2.00;;;;;;;;5065724;28;10135;-71
2021/01/14 12:57:09;;;;;;;;;2.00;2.00;;;;;;;;5065753;28;10250;-71
2021/01/14 12:59:36;;;;;;;;;1.00;1.00;;;;;;;;5070588;28;10185;-71
2021/01/14 13:02:05;;;;;;;;;2.00;2.00;;;;;;;;5066072;28;10097;-72
2021/01/14 13:04:31;;;;;;;;;2.00;2.00;;;;;;;;5059127;28;10833;-71
2021/01/14 13:06:58;;;;;;;;;2.00;2.00;;;;;;;;5056545;28;9951;-70
2021/01/14 13:09:25;;;;;;;;;2.25;2.25;;;;;;;;5052225;28;9905;-70
2021/01/14 13:11:55;;;;;;;;;2.00;2.00;;;;;;;;5055942;28;10179;-70
2021/01/14 13:14:23;;;;;;;;;2.00;2.00;;;;;;;;5060167;28;10095;-71
2021/01/14 13:16:50;;;;;;;;;3.75;2.00;;;;;;;;5056871;28;10184;-70
2021/01/14 13:19:19;;;;;;;;;2.25;2.25;;;;;;;;5058519;28;10998;-70
2021/01/14 13:21:46;;;;;;;;;3.75;3.75;;;;;;;;5053405;28;10225;-71
2021/01/14 13:24:15;;;;;;;;;3.00;3.00;;;;;;;;5055467;28;10206;-72
2021/01/14 13:26:42;;;;;;;;;4.25;2.50;;;;;;;;5049056;28;10212;-70
2021/01/14 13:29:10;;;;;;;;;3.00;3.00;;;;;;;;5050173;28;10122;-72
2021/01/14 13:31:42;;;;;;;;;2.50;2.50;;;;;;;;5060729;28;10109;-71
2021/01/14 13:34:09;;;;;;;;;7.75;7.75;;;;;;;;5058160;28;10164;-72
2021/01/14 13:36:36;;;;;;;;;4.00;4.00;;;;;;;;5066195;28;10200;-71
2021/01/14 13:39:04;;;;;;;;;6.50;5.00;;;;;;;;5046014;28;10182;-72
2021/01/14 13:41:31;;;;;;;;;7.50;6.00;;;;;;;;5065365;28;10242;-71
2021/01/14 13:43:58;;;;;;;;;7.25;5.75;;;;;;;;5053573;28;10126;-72
2021/01/14 13:46:27;;;;;;;;;7.75;6.25;;;;;;;;5058484;28;10149;-72
2021/01/14 13:48:55;;;;;;;;;10.75;6.50;;;;;;;;5053549;28;10202;-72
2021/01/14 13:51:29;;;;;;;;;4.50;3.00;;;;;;;;5065186;28;10237;-72
2021/01/14 13:53:56;;;;;;;;;7.00;4.50;;;;;;;;5040051;28;10161;-73
2021/01/14 13:56:24;;;;;;;;;7.00;7.00;;;;;;;;5057880;28;11450;-73
2021/01/14 13:58:51;;;;;;;;;4.00;2.50;;;;;;;;5058307;28;10135;-72
2021/01/14 14:01:22;;;;;;;;;4.00;4.00;;;;;;;;5063412;28;10042;-72
2021/01/14 14:03:49;;;;;;;;;4.00;3.50;;;;;;;;5065284;28;9959;-72
2021/01/14 14:06:17;;;;;;;;;3.50;3.50;;;;;;;;5063894;28;10025;-72
2021/01/14 14:08:43;;;;;;;;;4.00;4.00;;;;;;;;5064360;28;10074;-71
2021/01/14 14:11:10;;;;;;;;;5.50;5.50;;;;;;;;5065374;28;10105;-72
2021/01/14 14:13:37;;;;;;;;;5.00;5.00;;;;;;;;5060532;28;10070;-72
2021/01/14 14:16:04;;;;;;;;;4.75;3.00;;;;;;;;5065173;28;9946;-72
2021/01/14 14:18:31;;;;;;;;;2.75;2.75;;;;;;;;5062954;28;9961;-73
2021/01/14 14:20:58;;;;;;;;;4.00;4.00;;;;;;;;5064508;28;9969;-72
2021/01/14 14:23:26;;;;;;;;;4.00;4.00;;;;;;;;5050768;28;9973;-73
2021/01/14 14:25:53;;;;;;;;;3.00;3.00;;;;;;;;5064690;28;9977;-72
2021/01/14 14:28:19;;;;;;;;;3.00;3.00;;;;;;;;5046441;28;9900;-72
2021/01/14 14:30:46;;;;;;;;;3.25;3.25;;;;;;;;5063114;28;9892;-72
2021/01/14 14:33:13;;;;;;;;;3.25;3.25;;;;;;;;5060096;28;9911;-72
2021/01/14 14:35:41;;;;;;;;;2.00;2.00;;;;;;;;5064329;28;9788;-72
2021/01/14 14:38:08;;;;;;;;;3.00;3.00;;;;;;;;5060067;28;9721;-72
2021/01/14 14:40:37;;;;;;;;;2.50;2.50;;;;;;;;5042406;28;9907;-72
2021/01/14 14:43:04;;;;;;;;;2.25;2.25;;;;;;;;5045295;28;9616;-74
2021/01/14 14:45:30;;;;;;;;;2.00;2.00;;;;;;;;5046045;28;9761;-72
2021/01/14 14:47:57;;;;;;;;;2.25;2.25;;;;;;;;5046222;28;9745;-71
2021/01/14 14:50:24;;;;;;;;;3.00;3.00;;;;;;;;5064166;28;9766;-72
2021/01/14 14:52:52;;;;;;;;;2.00;2.00;;;;;;;;5055155;28;9980;-73
2021/01/14 14:55:20;;;;;;;;;2.00;2.00;;;;;;;;5055212;28;9700;-72
2021/01/14 14:57:50;;;;;;;;;2.00;2.00;;;;;;;;5056981;28;9778;-73
2021/01/14 15:00:18;;;;;;;;;2.00;2.00;;;;;;;;5073391;28;9838;-72
2021/01/14 15:02:44;;;;;;;;;2.50;2.50;;;;;;;;5063720;28;9773;-72
2021/01/14 15:05:11;;;;;;;;;3.00;3.00;;;;;;;;5063799;28;9903;-72
2021/01/14 15:07:38;;;;;;;;;2.00;2.00;;;;;;;;5063674;28;9800;-72
2021/01/14 15:10:06;;;;;;;;;2.00;2.00;;;;;;;;5061896;28;9701;-72
2021/01/14 15:12:33;;;;;;;;;0.25;0.25;;;;;;;;5063190;28;10583;-71
2021/01/14 15:15:01;;;;;;;;;0.00;0.00;;;;;;;;5062913;28;9634;-71
2021/01/14 15:17:28;;;;;;;;;0.00;0.00;;;;;;;;5059620;28;9497;-72
2021/01/14 15:19:58;;;;;;;;;0.00;0.00;;;;;;;;5063244;28;9492;-72